Terminal Aerodrome Forecast
Issued by NWS

Home | Current Version | Previous Version | Graphics & Text | Print | Product List | Glossary On
Versions: 1 2 3 4 5 6 7 8 9 10 11 12 13 14 15 16 17 18 19 20 21 22
000
FTUS45 KGGW 011100
TAFOLF
TAF
KOLF 011120Z 0112/0212 28020KT P6SM SCT100
     FM011800 28028G40KT P6SM BKN060
     FM020000 27023G32KT P6SM SCT250
     FM020600 28020G28KT P6SM BKN050=

USA.gov is the U.S. government's official web portal to all federal, state and local government web resources and services.